Time,TemperatureF,DewpointF,PressureIn,WindDirection,WindDirectionDegrees,WindSpeedMPH,WindSpeedGustMPH,Humidity,HourlyPrecipIn,Conditions,Clouds,dailyrainin,SoftwareType,DateUTC
2013-01-05 00:04:00,30.8,3.0,30.34,NNW,331,1.0,7.0,30,0.00,,,0.00,WUHU216DAVISVP2,2013-01-05 08:04:00,
2013-01-05 00:09:00,29.4,3.1,30.34,NNW,331,1.0,7.0,32,0.00,,,0.00,WUHU216DAVISVP2,2013-01-05 08:09:00,
2013-01-05 00:14:00,30.0,4.8,30.34,NNW,331,5.0,7.0,34,0.00,,,0.00,WUHU216DAVISVP2,2013-01-05 08:14:00,
2013-01-05 00:20:00,29.3,2.2,30.34,NNW,331,4.0,6.0,31,0.00,,,0.00,WUHU216DAVISVP2,2013-01-05 08:20:00,
2013-01-05 00:25:00,29.5,3.7,30.34,NNW,331,4.0,6.0,33,0.00,,,0.00,WUHU216DAVISVP2,2013-01-05 08:25:00,
2013-01-05 00:30:00,30.4,3.1,30.34,NNW,331,2.0,6.0,31,0.00,,,0.00,WUHU216DAVISVP2,2013-01-05 08:30:00,
2013-01-05 00:35:00,29.8,3.3,30.34,NNW,331,3.0,5.0,32,0.00,,,0.00,WUHU216DAVISVP2,2013-01-05 08:35:00,
2013-01-05 00:40:00,28.3,2.0,30.34,NNW,331,3.0,5.0,32,0.00,,,0.00,WUHU216DAVISVP2,2013-01-05 08:40:00,
2013-01-05 00:45:00,29.4,4.2,30.34,NNW,331,3.0,5.0,34,0.00,,,0.00,WUHU216DAVISVP2,2013-01-05 08:45:00,
2013-01-05 00:51:00,30.3,4.4,30.34,NNW,331,0.0,4.0,33,0.00,,,0.00,WUHU216DAVISVP2,2013-01-05 08:51:00,
2013-01-05 00:56:00,29.8,1.9,30.34,NNW,331,1.0,4.0,30,0.00,,,0.00,WUHU216DAVISVP2,2013-01-05 08:56:00,
2013-01-05 01:01:00,29.2,3.4,30.34,NNW,331,3.0,4.0,33,0.00,,,0.00,WUHU216DAVISVP2,2013-01-05 09:01:00,
2013-01-05 01:06:00,30.3,4.4,30.33,NW,325,6.0,7.0,33,0.00,,,0.00,WUHU216DAVISVP2,2013-01-05 09:06:00,
2013-01-05 01:11:00,30.6,2.6,30.34,NW,323,2.0,7.0,30,0.00,,,0.00,WUHU216DAVISVP2,2013-01-05 09:11:00,
2013-01-05 01:16:00,29.1,3.3,30.34,NW,323,2.0,7.0,33,0.00,,,0.00,WUHU216DAVISVP2,2013-01-05 09:16:00,
2013-01-05 01:21:00,29.2,3.4,30.34,NW,323,3.0,7.0,33,0.00,,,0.00,WUHU216DAVISVP2,2013-01-05 09:21:00,
2013-01-05 01:26:00,29.9,4.2,30.34,NW,323,4.0,6.0,33,0.00,,,0.00,WUHU216DAVISVP2,2013-01-05 09:26:00,
2013-01-05 01:31:00,30.7,4.3,30.34,NW,323,1.0,4.0,32,0.00,,,0.00,WUHU216DAVISVP2,2013-01-05 09:31:00,
2013-01-05 01:37:00,30.0,2.1,30.34,NW,323,1.0,4.0,30,0.00,,,0.00,WUHU216DAVISVP2,2013-01-05 09:37:00,
2013-01-05 01:42:00,28.4,1.4,30.34,NW,323,3.0,4.0,31,0.00,,,0.00,WUHU216DAVISVP2,2013-01-05 09:42:00,
2013-01-05 01:47:00,27.0,1.5,30.34,NW,323,4.0,5.0,33,0.00,,,0.00,WUHU216DAVISVP2,2013-01-05 09:47:00,
2013-01-05 01:52:00,26.7,1.8,30.34,NW,323,3.0,5.0,34,0.00,,,0.00,WUHU216DAVISVP2,2013-01-05 09:52:00,
2013-01-05 01:57:00,26.4,1.6,30.35,NW,323,0.0,5.0,34,0.00,,,0.00,WUHU216DAVISVP2,2013-01-05 09:57:00,
2013-01-05 02:02:00,25.7,1.0,30.35,NW,323,1.0,5.0,34,0.00,,,0.00,WUHU216DAVISVP2,2013-01-05 10:02:00,
2013-01-05 02:07:00,25.6,1.7,30.35,NW,323,0.0,4.0,35,0.00,,,0.00,WUHU216DAVISVP2,2013-01-05 10:07:00,
2013-01-05 02:12:00,25.7,3.0,30.35,NW,323,0.0,4.0,37,0.00,,,0.00,WUHU216DAVISVP2,2013-01-05 10:12:00,
2013-01-05 02:17:00,26.4,2.8,30.35,NW,323,0.0,4.0,36,0.00,,,0.00,WUHU216DAVISVP2,2013-01-05 10:17:00,
2013-01-05 02:22:00,25.7,1.6,30.35,NW,323,2.0,4.0,35,0.00,,,0.00,WUHU216DAVISVP2,2013-01-05 10:22:00,
2013-01-05 02:28:00,25.4,1.3,30.35,NW,323,3.0,3.0,35,0.00,,,0.00,WUHU216DAVISVP2,2013-01-05 10:28:00,
2013-01-05 02:33:00,25.8,2.9,30.35,NW,323,4.0,4.0,37,0.00,,,0.00,WUHU216DAVISVP2,2013-01-05 10:33:00,
2013-01-05 02:38:00,26.5,2.3,30.35,NW,323,5.0,6.0,35,0.00,,,0.00,WUHU216DAVISVP2,2013-01-05 10:38:00,
2013-01-05 02:43:00,26.7,4.3,30.35,NW,323,5.0,6.0,38,0.00,,,0.00,WUHU216DAVISVP2,2013-01-05 10:43:00,
2013-01-05 02:48:00,26.9,3.3,30.34,NW,323,4.0,6.0,36,0.00,,,0.00,WUHU216DAVISVP2,2013-01-05 10:48:00,
2013-01-05 02:53:00,27.0,3.3,30.34,NW,323,4.0,6.0,36,0.00,,,0.00,WUHU216DAVISVP2,2013-01-05 10:53:00,
2013-01-05 02:58:00,27.1,2.8,30.34,NW,324,2.0,7.0,35,0.00,,,0.00,WUHU216DAVISVP2,2013-01-05 10:58:00,
2013-01-05 03:03:00,27.3,3.6,30.34,NW,324,2.0,7.0,36,0.00,,,0.00,WUHU216DAVISVP2,2013-01-05 11:03:00,
2013-01-05 03:08:00,28.1,4.3,30.34,NW,324,1.0,7.0,36,0.00,,,0.00,WUHU216DAVISVP2,2013-01-05 11:08:00,
2013-01-05 03:14:00,27.7,3.4,30.34,NW,324,3.0,5.0,35,0.00,,,0.00,WUHU216DAVISVP2,2013-01-05 11:14:00,
2013-01-05 03:19:00,27.9,4.2,30.35,NW,324,3.0,5.0,36,0.00,,,0.00,WUHU216DAVISVP2,2013-01-05 11:19:00,
2013-01-05 03:24:00,26.9,2.0,30.35,NW,324,3.0,5.0,34,0.00,,,0.00,WUHU216DAVISVP2,2013-01-05 11:24:00,
2013-01-05 03:29:00,27.0,3.3,30.35,NW,324,2.0,5.0,36,0.00,,,0.00,WUHU216DAVISVP2,2013-01-05 11:29:00,
2013-01-05 03:34:00,26.9,3.3,30.35,NW,324,3.0,5.0,36,0.00,,,0.00,WUHU216DAVISVP2,2013-01-05 11:34:00,
2013-01-05 03:39:00,26.6,3.0,30.35,NW,324,3.0,5.0,36,0.00,,,0.00,WUHU216DAVISVP2,2013-01-05 11:39:00,
2013-01-05 03:44:00,27.3,4.2,30.34,NW,324,2.0,5.0,37,0.00,,,0.00,WUHU216DAVISVP2,2013-01-05 11:44:00,
2013-01-05 03:49:00,28.0,4.2,30.35,NW,324,0.0,5.0,36,0.00,,,0.00,WUHU216DAVISVP2,2013-01-05 11:49:00,
2013-01-05 03:54:00,27.3,2.4,30.35,NW,324,3.0,5.0,34,0.00,,,0.00,WUHU216DAVISVP2,2013-01-05 11:54:00,
2013-01-05 03:59:00,26.4,2.8,30.35,NW,324,4.0,5.0,36,0.00,,,0.00,WUHU216DAVISVP2,2013-01-05 11:59:00,
2013-01-05 04:04:00,25.6,2.7,30.35,NW,324,4.0,5.0,37,0.00,,,0.00,WUHU216DAVISVP2,2013-01-05 12:04:00,
2013-01-05 04:09:00,25.3,2.4,30.35,NW,324,3.0,5.0,37,0.00,,,0.00,WUHU216DAVISVP2,2013-01-05 12:09:00,
2013-01-05 04:15:00,25.1,1.7,30.35,NW,324,0.0,5.0,36,0.00,,,0.00,WUHU216DAVISVP2,2013-01-05 12:15:00,
2013-01-05 04:20:00,24.6,2.9,30.35,NW,324,4.0,5.0,39,0.00,,,0.00,WUHU216DAVISVP2,2013-01-05 12:20:00,
2013-01-05 04:25:00,25.3,3.0,30.35,NW,324,0.0,5.0,38,0.00,,,0.00,WUHU216DAVISVP2,2013-01-05 12:25:00,
2013-01-05 04:30:00,25.3,2.6,30.35,NW,324,1.0,4.0,37,0.00,,,0.00,WUHU216DAVISVP2,2013-01-05 12:30:00,
2013-01-05 04:35:00,25.6,3.5,30.35,NW,324,2.0,4.0,38,0.00,,,0.00,WUHU216DAVISVP2,2013-01-05 12:35:00,
2013-01-05 04:40:00,25.1,2.4,30.35,NW,324,0.0,4.0,37,0.00,,,0.00,WUHU216DAVISVP2,2013-01-05 12:40:00,
2013-01-05 04:45:00,24.9,2.6,30.35,NW,324,2.0,4.0,38,0.00,,,0.00,WUHU216DAVISVP2,2013-01-05 12:45:00,
2013-01-05 04:50:00,24.7,1.9,30.35,NW,324,0.0,4.0,37,0.00,,,0.00,WUHU216DAVISVP2,2013-01-05 12:50:00,
2013-01-05 04:55:00,24.0,1.8,30.35,NW,324,0.0,3.0,38,0.00,,,0.00,WUHU216DAVISVP2,2013-01-05 12:55:00,
2013-01-05 05:00:00,23.6,2.0,30.35,NW,324,0.0,3.0,39,0.00,,,0.00,WUHU216DAVISVP2,2013-01-05 13:00:00,
2013-01-05 05:05:00,23.8,2.2,30.36,NW,324,2.0,3.0,39,0.00,,,0.00,WUHU216DAVISVP2,2013-01-05 13:05:00,
2013-01-05 05:10:00,24.3,2.7,30.36,NW,324,2.0,4.0,39,0.00,,,0.00,WUHU216DAVISVP2,2013-01-05 13:10:00,
2013-01-05 05:16:00,24.7,2.5,30.36,NW,324,2.0,4.0,38,0.00,,,0.00,WUHU216DAVISVP2,2013-01-05 13:16:00,
2013-01-05 05:21:00,25.1,4.7,30.36,NW,324,0.0,4.0,41,0.00,,,0.00,WUHU216DAVISVP2,2013-01-05 13:21:00,
2013-01-05 05:26:00,26.0,4.4,30.36,NW,324,1.0,4.0,39,0.00,,,0.00,WUHU216DAVISVP2,2013-01-05 13:26:00,
2013-01-05 05:31:00,26.6,4.4,30.36,NW,324,1.0,3.0,38,0.00,,,0.00,WUHU216DAVISVP2,2013-01-05 13:31:00,
2013-01-05 05:36:00,26.3,4.1,30.37,NW,324,0.0,3.0,38,0.00,,,0.00,WUHU216DAVISVP2,2013-01-05 13:36:00,
2013-01-05 05:41:00,26.3,4.5,30.37,NW,324,2.0,3.0,39,0.00,,,0.00,WUHU216DAVISVP2,2013-01-05 13:41:00,
2013-01-05 05:46:00,26.3,3.3,30.37,NW,324,3.0,4.0,37,0.00,,,0.00,WUHU216DAVISVP2,2013-01-05 13:46:00,
2013-01-05 05:51:00,25.6,2.7,30.37,NW,324,5.0,5.0,37,0.00,,,0.00,WUHU216DAVISVP2,2013-01-05 13:51:00,
2013-01-05 05:56:00,26.1,4.9,30.37,NW,324,2.0,6.0,40,0.00,,,0.00,WUHU216DAVISVP2,2013-01-05 13:56:00,
2013-01-05 06:01:00,26.2,4.4,30.37,NW,323,4.0,6.0,39,0.00,,,0.00,WUHU216DAVISVP2,2013-01-05 14:01:00,
2013-01-05 06:06:00,26.4,3.4,30.37,NW,312,4.0,6.0,37,0.00,,,0.00,WUHU216DAVISVP2,2013-01-05 14:06:00,
2013-01-05 06:11:00,27.1,5.2,30.37,NW,312,5.0,6.0,39,0.00,,,0.00,WUHU216DAVISVP2,2013-01-05 14:11:00,
2013-01-05 06:17:00,27.0,4.5,30.37,NW,312,3.0,6.0,38,0.00,,,0.00,WUHU216DAVISVP2,2013-01-05 14:17:00,
2013-01-05 06:22:00,27.0,5.7,30.37,NW,312,2.0,5.0,40,0.00,,,0.00,WUHU216DAVISVP2,2013-01-05 14:22:00,
2013-01-05 06:27:00,28.1,6.1,30.37,NW,312,3.0,5.0,39,0.00,,,0.00,WUHU216DAVISVP2,2013-01-05 14:27:00,
2013-01-05 06:32:00,27.2,4.3,30.37,NW,312,4.0,5.0,37,0.00,,,0.00,WUHU216DAVISVP2,2013-01-05 14:32:00,
2013-01-05 06:37:00,26.2,4.0,30.37,NW,312,2.0,5.0,38,0.00,,,0.00,WUHU216DAVISVP2,2013-01-05 14:37:00,
2013-01-05 06:42:00,26.0,4.4,30.37,NW,312,2.0,5.0,39,0.00,,,0.00,WUHU216DAVISVP2,2013-01-05 14:42:00,
2013-01-05 06:47:00,26.0,4.9,30.37,NW,312,1.0,5.0,40,0.00,,,0.00,WUHU216DAVISVP2,2013-01-05 14:47:00,
2013-01-05 06:52:00,26.8,5.7,30.37,NW,312,2.0,5.0,40,0.00,,,0.00,WUHU216DAVISVP2,2013-01-05 14:52:00,
2013-01-05 06:57:00,27.5,5.6,30.38,NW,312,1.0,3.0,39,0.00,,,0.00,WUHU216DAVISVP2,2013-01-05 14:57:00,
2013-01-05 07:02:00,27.3,4.8,30.38,NW,312,0.0,3.0,38,0.00,,,0.00,WUHU216DAVISVP2,2013-01-05 15:02:00,
2013-01-05 07:08:00,26.9,4.4,30.38,NW,312,4.0,4.0,38,0.00,,,0.00,WUHU216DAVISVP2,2013-01-05 15:08:00,
2013-01-05 07:13:00,25.6,3.3,30.38,NW,312,2.0,5.0,38,0.00,,,0.00,WUHU216DAVISVP2,2013-01-05 15:13:00,
2013-01-05 07:18:00,25.1,3.4,30.38,NW,312,3.0,5.0,39,0.00,,,0.00,WUHU216DAVISVP2,2013-01-05 15:18:00,
2013-01-05 07:23:00,25.2,4.6,30.38,NW,312,1.0,5.0,41,0.00,,,0.00,WUHU216DAVISVP2,2013-01-05 15:23:00,
2013-01-05 07:28:00,26.2,4.9,30.38,NW,312,2.0,5.0,40,0.00,,,0.00,WUHU216DAVISVP2,2013-01-05 15:28:00,
2013-01-05 07:33:00,27.5,6.1,30.38,NW,312,3.0,5.0,40,0.00,,,0.00,WUHU216DAVISVP2,2013-01-05 15:33:00,
2013-01-05 07:38:00,28.3,5.7,30.39,NW,312,2.0,5.0,38,0.00,,,0.00,WUHU216DAVISVP2,2013-01-05 15:38:00,
2013-01-05 07:43:00,29.1,6.6,30.38,NW,312,0.0,4.0,38,0.00,,,0.00,WUHU216DAVISVP2,2013-01-05 15:43:00,
2013-01-05 07:48:00,30.2,7.0,30.39,NW,312,2.0,3.0,37,0.00,,,0.00,WUHU216DAVISVP2,2013-01-05 15:48:00,
2013-01-05 07:53:00,31.6,7.0,30.39,NW,312,2.0,4.0,35,0.00,,,0.00,WUHU216DAVISVP2,2013-01-05 15:53:00,
2013-01-05 07:59:00,32.4,7.7,30.39,NW,312,0.0,4.0,35,0.00,,,0.00,WUHU216DAVISVP2,2013-01-05 15:59:00,
2013-01-05 08:04:00,33.2,7.2,30.39,NW,312,0.0,4.0,33,0.00,,,0.00,WUHU216DAVISVP2,2013-01-05 16:04:00,
2013-01-05 08:09:00,33.9,7.1,30.39,NW,312,0.0,4.0,32,0.00,,,0.00,WUHU216DAVISVP2,2013-01-05 16:09:00,
2013-01-05 08:14:00,34.6,7.7,30.39,NW,312,0.0,3.0,32,0.00,,,0.00,WUHU216DAVISVP2,2013-01-05 16:14:00,
2013-01-05 08:19:00,35.4,7.7,30.39,NW,312,0.0,2.0,31,0.00,,,0.00,WUHU216DAVISVP2,2013-01-05 16:19:00,
2013-01-05 08:25:00,36.3,7.8,30.39,NW,312,0.0,2.0,30,0.00,,,0.00,WUHU216DAVISVP2,2013-01-05 16:25:00,
2013-01-05 08:30:00,37.4,8.7,30.39,NW,312,0.0,2.0,30,0.00,,,0.00,WUHU216DAVISVP2,2013-01-05 16:30:00,
2013-01-05 08:35:00,38.8,8.4,30.39,NW,312,0.0,1.0,28,0.00,,,0.00,WUHU216DAVISVP2,2013-01-05 16:35:00,
2013-01-05 08:40:00,39.3,7.9,30.39,NW,312,0.0,1.0,27,0.00,,,0.00,WUHU216DAVISVP2,2013-01-05 16:40:00,
2013-01-05 08:45:00,39.9,8.4,30.38,NW,312,0.0,0.0,27,0.00,,,0.00,WUHU216DAVISVP2,2013-01-05 16:45:00,
2013-01-05 08:50:00,40.6,8.2,30.39,NW,312,0.0,0.0,26,0.00,,,0.00,WUHU216DAVISVP2,2013-01-05 16:50:00,
2013-01-05 08:55:00,40.9,8.5,30.38,NW,312,0.0,0.0,26,0.00,,,0.00,WUHU216DAVISVP2,2013-01-05 16:55:00,
2013-01-05 09:01:00,41.6,8.2,30.38,NW,312,0.0,0.0,25,0.00,,,0.00,WUHU216DAVISVP2,2013-01-05 17:01:00,
2013-01-05 09:06:00,43.0,9.4,30.39,NW,312,0.0,0.0,25,0.00,,,0.00,WUHU216DAVISVP2,2013-01-05 17:06:00,
2013-01-05 09:11:00,44.4,9.7,30.39,NW,312,0.0,0.0,24,0.00,,,0.00,WUHU216DAVISVP2,2013-01-05 17:11:00,
2013-01-05 09:16:00,45.4,8.6,30.39,NW,312,3.0,3.0,22,0.00,,,0.00,WUHU216DAVISVP2,2013-01-05 17:16:00,
2013-01-05 09:21:00,44.3,7.7,30.39,ENE,65,3.0,4.0,22,0.00,,,0.00,WUHU216DAVISVP2,2013-01-05 17:21:00,
2013-01-05 09:26:00,42.9,7.5,30.39,ENE,76,4.0,5.0,23,0.00,,,0.00,WUHU216DAVISVP2,2013-01-05 17:26:00,
2013-01-05 09:31:00,42.5,7.2,30.39,ENE,76,4.0,5.0,23,0.00,,,0.00,WUHU216DAVISVP2,2013-01-05 17:31:00,
2013-01-05 09:36:00,42.4,6.1,30.38,ENE,76,4.0,5.0,22,0.00,,,0.00,WUHU216DAVISVP2,2013-01-05 17:36:00,
2013-01-05 09:41:00,42.8,7.4,30.38,ENE,76,4.0,5.0,23,0.00,,,0.00,WUHU216DAVISVP2,2013-01-05 17:41:00,
2013-01-05 09:47:00,43.3,5.9,30.38,East,80,5.0,6.0,21,0.00,,,0.00,WUHU216DAVISVP2,2013-01-05 17:47:00,
2013-01-05 09:52:00,43.7,6.2,30.39,East,82,3.0,6.0,21,0.00,,,0.00,WUHU216DAVISVP2,2013-01-05 17:52:00,
2013-01-05 09:57:00,44.1,5.5,30.39,East,82,6.0,6.0,20,0.00,,,0.00,WUHU216DAVISVP2,2013-01-05 17:57:00,
2013-01-05 10:02:00,44.5,5.8,30.39,East,82,3.0,6.0,20,0.00,,,0.00,WUHU216DAVISVP2,2013-01-05 18:02:00,
2013-01-05 10:07:00,44.9,5.1,30.39,East,82,3.0,6.0,19,0.00,,,0.00,WUHU216DAVISVP2,2013-01-05 18:07:00,
2013-01-05 10:12:00,45.2,5.3,30.39,East,82,3.0,6.0,19,0.00,,,0.00,WUHU216DAVISVP2,2013-01-05 18:12:00,
2013-01-05 10:18:00,45.9,5.9,30.38,SE,140,3.0,6.0,19,0.00,,,0.00,WUHU216DAVISVP2,2013-01-05 18:18:00,
2013-01-05 10:23:00,46.7,6.5,30.38,SSE,150,4.0,7.0,19,0.00,,,0.00,WUHU216DAVISVP2,2013-01-05 18:23:00,
2013-01-05 10:28:00,47.0,6.8,30.38,SSE,150,5.0,7.0,19,0.00,,,0.00,WUHU216DAVISVP2,2013-01-05 18:28:00,
2013-01-05 10:34:00,47.5,6.0,30.38,SSE,150,4.0,7.0,18,0.00,,,0.00,WUHU216DAVISVP2,2013-01-05 18:34:00,
2013-01-05 10:39:00,47.8,6.3,30.38,SSE,150,3.0,7.0,18,0.00,,,0.00,WUHU216DAVISVP2,2013-01-05 18:39:00,
2013-01-05 10:44:00,47.9,6.4,30.37,SSE,150,5.0,6.0,18,0.00,,,0.00,WUHU216DAVISVP2,2013-01-05 18:44:00,
2013-01-05 10:49:00,47.9,6.4,30.37,SSE,150,4.0,6.0,18,0.00,,,0.00,WUHU216DAVISVP2,2013-01-05 18:49:00,
2013-01-05 10:54:00,48.3,5.4,30.37,SSE,150,4.0,6.0,17,0.00,,,0.00,WUHU216DAVISVP2,2013-01-05 18:54:00,
2013-01-05 10:59:00,48.3,5.4,30.37,SSE,150,5.0,7.0,17,0.00,,,0.00,WUHU216DAVISVP2,2013-01-05 18:59:00,
2013-01-05 11:04:00,48.4,5.5,30.36,SSE,151,5.0,7.0,17,0.00,,,0.00,WUHU216DAVISVP2,2013-01-05 19:04:00,
2013-01-05 11:09:00,49.0,4.7,30.36,SSE,161,5.0,7.0,16,0.00,,,0.00,WUHU216DAVISVP2,2013-01-05 19:09:00,
2013-01-05 11:14:00,49.0,4.7,30.35,SSE,167,4.0,8.0,16,0.00,,,0.00,WUHU216DAVISVP2,2013-01-05 19:14:00,
2013-01-05 11:20:00,49.2,4.8,30.35,South,181,6.0,8.0,16,0.00,,,0.00,WUHU216DAVISVP2,2013-01-05 19:20:00,
2013-01-05 11:25:00,49.3,4.9,30.35,South,186,7.0,8.0,16,0.00,,,0.00,WUHU216DAVISVP2,2013-01-05 19:25:00,
2013-01-05 11:30:00,49.0,4.7,30.34,SSW,194,7.0,9.0,16,0.00,,,0.00,WUHU216DAVISVP2,2013-01-05 19:30:00,
2013-01-05 11:35:00,49.2,4.8,30.34,South,185,6.0,9.0,16,0.00,,,0.00,WUHU216DAVISVP2,2013-01-05 19:35:00,
2013-01-05 11:40:00,49.3,4.9,30.34,SSE,167,6.0,9.0,16,0.00,,,0.00,WUHU216DAVISVP2,2013-01-05 19:40:00,
2013-01-05 11:45:00,49.4,3.6,30.33,SSE,168,9.0,9.0,15,0.00,,,0.00,WUHU216DAVISVP2,2013-01-05 19:45:00,
2013-01-05 11:50:00,49.2,3.4,30.33,SSE,165,9.0,10.0,15,0.00,,,0.00,WUHU216DAVISVP2,2013-01-05 19:50:00,
2013-01-05 11:55:00,49.3,3.5,30.33,SSE,161,7.0,10.0,15,0.00,,,0.00,WUHU216DAVISVP2,2013-01-05 19:55:00,
2013-01-05 12:01:00,49.2,3.4,30.33,South,171,6.0,10.0,15,0.00,,,0.00,WUHU216DAVISVP2,2013-01-05 20:01:00,
2013-01-05 12:06:00,49.4,3.6,30.32,South,171,8.0,10.0,15,0.00,,,0.00,WUHU216DAVISVP2,2013-01-05 20:06:00,
2013-01-05 12:11:00,49.4,3.6,30.32,South,172,5.0,10.0,15,0.00,,,0.00,WUHU216DAVISVP2,2013-01-05 20:11:00,
2013-01-05 12:16:00,49.9,4.0,30.32,South,179,6.0,10.0,15,0.00,,,0.00,WUHU216DAVISVP2,2013-01-05 20:16:00,
2013-01-05 12:21:00,50.1,4.2,30.32,South,182,8.0,11.0,15,0.00,,,0.00,WUHU216DAVISVP2,2013-01-05 20:21:00,
2013-01-05 12:26:00,50.1,4.2,30.31,South,179,2.0,11.0,15,0.00,,,0.00,WUHU216DAVISVP2,2013-01-05 20:26:00,
2013-01-05 12:31:00,50.2,4.2,30.31,SSE,163,7.0,11.0,15,0.00,,,0.00,WUHU216DAVISVP2,2013-01-05 20:31:00,
2013-01-05 12:36:00,50.4,4.4,30.30,South,176,7.0,11.0,15,0.00,,,0.00,WUHU216DAVISVP2,2013-01-05 20:36:00,
2013-01-05 12:42:00,50.5,4.5,30.30,South,177,6.0,9.0,15,0.00,,,0.00,WUHU216DAVISVP2,2013-01-05 20:42:00,
2013-01-05 12:47:00,50.6,4.6,30.30,South,173,4.0,9.0,15,0.00,,,0.00,WUHU216DAVISVP2,2013-01-05 20:47:00,
2013-01-05 12:52:00,51.0,3.4,30.30,South,169,6.0,9.0,14,0.00,,,0.00,WUHU216DAVISVP2,2013-01-05 20:52:00,
2013-01-05 12:57:00,51.0,3.4,30.30,South,170,5.0,9.0,14,0.00,,,0.00,WUHU216DAVISVP2,2013-01-05 20:57:00,
2013-01-05 13:02:00,51.2,3.5,30.29,South,170,4.0,9.0,14,0.00,,,0.00,WUHU216DAVISVP2,2013-01-05 21:02:00,
2013-01-05 13:07:00,51.2,3.5,30.29,South,171,4.0,9.0,14,0.00,,,0.00,WUHU216DAVISVP2,2013-01-05 21:07:00,
2013-01-05 13:12:00,51.6,3.8,30.29,South,171,5.0,9.0,14,0.00,,,0.00,WUHU216DAVISVP2,2013-01-05 21:12:00,
2013-01-05 13:18:00,51.8,4.0,30.29,South,171,4.0,9.0,14,0.00,,,0.00,WUHU216DAVISVP2,2013-01-05 21:18:00,
2013-01-05 13:23:00,52.1,2.6,30.28,South,171,3.0,9.0,13,0.00,,,0.00,WUHU216DAVISVP2,2013-01-05 21:23:00,
2013-01-05 13:28:00,52.5,3.0,30.28,SSE,159,4.0,9.0,13,0.00,,,0.00,WUHU216DAVISVP2,2013-01-05 21:28:00,
2013-01-05 13:33:00,52.6,1.2,30.28,SSE,159,2.0,7.0,12,0.00,,,0.00,WUHU216DAVISVP2,2013-01-05 21:33:00,
2013-01-05 13:38:00,52.8,3.2,30.28,SSE,159,2.0,7.0,13,0.00,,,0.00,WUHU216DAVISVP2,2013-01-05 21:38:00,
2013-01-05 13:43:00,53.2,3.5,30.27,SSE,159,5.0,7.0,13,0.00,,,0.00,WUHU216DAVISVP2,2013-01-05 21:43:00,
2013-01-05 13:48:00,53.2,1.7,30.27,SE,145,3.0,6.0,12,0.00,,,0.00,WUHU216DAVISVP2,2013-01-05 21:48:00,
2013-01-05 13:54:00,53.0,3.3,30.27,SE,145,4.0,6.0,13,0.00,,,0.00,WUHU216DAVISVP2,2013-01-05 21:54:00,
2013-01-05 13:59:00,53.0,1.5,30.27,SE,145,3.0,6.0,12,0.00,,,0.00,WUHU216DAVISVP2,2013-01-05 21:59:00,
2013-01-05 14:04:00,52.8,3.2,30.27,SE,145,4.0,7.0,13,0.00,,,0.00,WUHU216DAVISVP2,2013-01-05 22:04:00,
2013-01-05 14:09:00,52.9,3.2,30.27,SE,145,4.0,7.0,13,0.00,,,0.00,WUHU216DAVISVP2,2013-01-05 22:09:00,
2013-01-05 14:14:00,52.8,3.2,30.27,SE,145,4.0,7.0,13,0.00,,,0.00,WUHU216DAVISVP2,2013-01-05 22:14:00,
2013-01-05 14:19:00,52.6,3.1,30.27,SE,145,5.0,8.0,13,0.00,,,0.00,WUHU216DAVISVP2,2013-01-05 22:19:00,
2013-01-05 14:24:00,52.5,3.0,30.26,SE,145,4.0,8.0,13,0.00,,,0.00,WUHU216DAVISVP2,2013-01-05 22:24:00,
2013-01-05 14:29:00,52.7,3.1,30.26,SE,145,2.0,8.0,13,0.00,,,0.00,WUHU216DAVISVP2,2013-01-05 22:29:00,
2013-01-05 14:34:00,52.9,3.2,30.26,SE,140,2.0,8.0,13,0.00,,,0.00,WUHU216DAVISVP2,2013-01-05 22:34:00,
2013-01-05 14:40:00,52.9,1.5,30.27,SE,140,3.0,8.0,12,0.00,,,0.00,WUHU216DAVISVP2,2013-01-05 22:40:00,
2013-01-05 14:45:00,53.0,1.6,30.27,SE,140,4.0,7.0,12,0.00,,,0.00,WUHU216DAVISVP2,2013-01-05 22:45:00,
2013-01-05 14:50:00,52.8,1.5,30.27,SE,141,4.0,6.0,12,0.00,,,0.00,WUHU216DAVISVP2,2013-01-05 22:50:00,
2013-01-05 14:55:00,52.9,1.5,30.27,SE,142,3.0,7.0,12,0.00,,,0.00,WUHU216DAVISVP2,2013-01-05 22:55:00,
2013-01-05 15:00:00,52.7,1.3,30.27,SE,142,2.0,7.0,12,0.00,,,0.00,WUHU216DAVISVP2,2013-01-05 23:00:00,
2013-01-05 15:05:00,52.6,1.2,30.26,SE,142,1.0,7.0,12,0.00,,,0.00,WUHU216DAVISVP2,2013-01-05 23:05:00,
2013-01-05 15:10:00,52.7,1.3,30.26,SE,142,3.0,7.0,12,0.00,,,0.00,WUHU216DAVISVP2,2013-01-05 23:10:00,
2013-01-05 15:15:00,52.6,1.3,30.26,SE,142,3.0,6.0,12,0.00,,,0.00,WUHU216DAVISVP2,2013-01-05 23:15:00,
2013-01-05 15:20:00,52.6,1.2,30.26,SE,142,3.0,6.0,12,0.00,,,0.00,WUHU216DAVISVP2,2013-01-05 23:20:00,
2013-01-05 15:25:00,52.5,1.2,30.26,SE,142,4.0,6.0,12,0.00,,,0.00,WUHU216DAVISVP2,2013-01-05 23:25:00,
2013-01-05 15:31:00,52.6,1.2,30.26,SE,142,3.0,6.0,12,0.00,,,0.00,WUHU216DAVISVP2,2013-01-05 23:31:00,
2013-01-05 15:36:00,52.8,1.4,30.26,SE,142,1.0,6.0,12,0.00,,,0.00,WUHU216DAVISVP2,2013-01-05 23:36:00,
2013-01-05 15:41:00,52.9,1.5,30.26,SE,142,5.0,6.0,12,0.00,,,0.00,WUHU216DAVISVP2,2013-01-05 23:41:00,
2013-01-05 15:46:00,52.7,1.3,30.26,SE,142,3.0,6.0,12,0.00,,,0.00,WUHU216DAVISVP2,2013-01-05 23:46:00,
2013-01-05 15:51:00,52.7,1.3,30.26,SE,142,3.0,6.0,12,0.00,,,0.00,WUHU216DAVISVP2,2013-01-05 23:51:00,
2013-01-05 15:56:00,52.5,1.2,30.26,SE,142,2.0,6.0,12,0.00,,,0.00,WUHU216DAVISVP2,2013-01-05 23:56:00,
2013-01-05 16:01:00,52.4,1.1,30.26,SE,142,5.0,6.0,12,0.00,,,0.00,WUHU216DAVISVP2,2013-01-06 00:01:00,
2013-01-05 16:06:00,52.3,1.0,30.26,SE,142,4.0,6.0,12,0.00,,,0.00,WUHU216DAVISVP2,2013-01-06 00:06:00,
2013-01-05 16:11:00,52.1,0.8,30.26,SE,142,2.0,6.0,12,0.00,,,0.00,WUHU216DAVISVP2,2013-01-06 00:11:00,
2013-01-05 16:17:00,51.8,0.6,30.25,SE,142,4.0,6.0,12,0.00,,,0.00,WUHU216DAVISVP2,2013-01-06 00:17:00,
2013-01-05 16:22:00,51.5,0.4,30.25,SE,142,3.0,6.0,12,0.00,,,0.00,WUHU216DAVISVP2,2013-01-06 00:22:00,
2013-01-05 16:27:00,51.4,0.3,30.25,SE,142,2.0,6.0,12,0.00,,,0.00,WUHU216DAVISVP2,2013-01-06 00:27:00,
2013-01-05 16:32:00,51.2,0.1,30.25,SE,142,1.0,6.0,12,0.00,,,0.00,WUHU216DAVISVP2,2013-01-06 00:32:00,
2013-01-05 16:37:00,50.9,-0.1,30.25,SE,142,3.0,6.0,12,0.00,,,0.00,WUHU216DAVISVP2,2013-01-06 00:37:00,
2013-01-05 16:42:00,49.9,-0.9,30.25,SE,142,3.0,4.0,12,0.00,,,0.00,WUHU216DAVISVP2,2013-01-06 00:42:00,
2013-01-05 16:47:00,49.1,0.2,30.25,SE,142,1.0,4.0,13,0.00,,,0.00,WUHU216DAVISVP2,2013-01-06 00:47:00,
2013-01-05 16:53:00,48.4,-0.3,30.25,SE,142,2.0,4.0,13,0.00,,,0.00,WUHU216DAVISVP2,2013-01-06 00:53:00,
2013-01-05 16:58:00,46.8,0.0,30.25,SE,142,2.0,4.0,14,0.00,,,0.00,WUHU216DAVISVP2,2013-01-06 00:58:00,
2013-01-05 17:03:00,45.3,-1.2,30.25,SE,142,3.0,4.0,14,0.00,,,0.00,WUHU216DAVISVP2,2013-01-06 01:03:00,
2013-01-05 17:08:00,44.7,-0.2,30.25,SE,142,4.0,5.0,15,0.00,,,0.00,WUHU216DAVISVP2,2013-01-06 01:08:00,
2013-01-05 17:14:00,44.6,-0.3,30.25,SE,142,5.0,6.0,15,0.00,,,0.00,WUHU216DAVISVP2,2013-01-06 01:14:00,
2013-01-05 17:19:00,43.3,-1.3,30.25,SE,141,6.0,7.0,15,0.00,,,0.00,WUHU216DAVISVP2,2013-01-06 01:19:00,
2013-01-05 17:24:00,41.9,-1.1,30.25,NNE,19,6.0,7.0,16,0.00,,,0.00,WUHU216DAVISVP2,2013-01-06 01:24:00,
2013-01-05 17:29:00,41.5,-0.1,30.25,North,355,6.0,7.0,17,0.00,,,0.00,WUHU216DAVISVP2,2013-01-06 01:29:00,
2013-01-05 17:34:00,41.0,-0.5,30.25,NW,326,7.0,7.0,17,0.00,,,0.00,WUHU216DAVISVP2,2013-01-06 01:34:00,
2013-01-05 17:39:00,41.0,0.7,30.25,NW,321,4.0,7.0,18,0.00,,,0.00,WUHU216DAVISVP2,2013-01-06 01:39:00,
2013-01-05 17:45:00,40.6,0.3,30.25,NW,321,4.0,7.0,18,0.00,,,0.00,WUHU216DAVISVP2,2013-01-06 01:45:00,
2013-01-05 17:50:00,40.5,0.3,30.25,NW,321,5.0,7.0,18,0.00,,,0.00,WUHU216DAVISVP2,2013-01-06 01:50:00,
2013-01-05 17:55:00,40.8,1.7,30.25,NW,321,4.0,6.0,19,0.00,,,0.00,WUHU216DAVISVP2,2013-01-06 01:55:00,
2013-01-05 18:00:00,41.4,2.2,30.25,NW,323,6.0,7.0,19,0.00,,,0.00,WUHU216DAVISVP2,2013-01-06 02:00:00,
2013-01-05 18:05:00,41.2,0.8,30.25,NW,315,5.0,7.0,18,0.00,,,0.00,WUHU216DAVISVP2,2013-01-06 02:05:00,
2013-01-05 18:10:00,40.6,1.5,30.25,NNW,338,4.0,7.0,19,0.00,,,0.00,WUHU216DAVISVP2,2013-01-06 02:10:00,
2013-01-05 18:15:00,40.5,0.2,30.24,NNW,338,4.0,7.0,18,0.00,,,0.00,WUHU216DAVISVP2,2013-01-06 02:15:00,
2013-01-05 18:20:00,40.3,0.1,30.24,NNW,338,4.0,6.0,18,0.00,,,0.00,WUHU216DAVISVP2,2013-01-06 02:20:00,
2013-01-05 18:25:00,40.2,1.1,30.24,NNW,338,4.0,6.0,19,0.00,,,0.00,WUHU216DAVISVP2,2013-01-06 02:25:00,
2013-01-05 18:30:00,39.9,0.9,30.24,NNW,338,2.0,6.0,19,0.00,,,0.00,WUHU216DAVISVP2,2013-01-06 02:30:00,
2013-01-05 18:40:00,40.1,1.1,30.24,NNW,328,3.0,5.0,19,0.00,,,0.00,WUHU216DAVISVP2,2013-01-06 02:40:00,
2013-01-05 18:45:00,40.2,2.2,30.24,NNW,328,3.0,5.0,20,0.00,,,0.00,WUHU216DAVISVP2,2013-01-06 02:45:00,
2013-01-05 18:50:00,40.4,1.3,30.24,NNW,328,2.0,5.0,19,0.00,,,0.00,WUHU216DAVISVP2,2013-01-06 02:50:00,
2013-01-05 18:55:00,40.4,1.3,30.24,NNW,328,2.0,4.0,19,0.00,,,0.00,WUHU216DAVISVP2,2013-01-06 02:55:00,
2013-01-05 19:00:00,40.1,1.1,30.24,NNW,328,2.0,4.0,19,0.00,,,0.00,WUHU216DAVISVP2,2013-01-06 03:00:00,
2013-01-05 19:05:00,40.1,1.1,30.24,NNW,328,4.0,4.0,19,0.00,,,0.00,WUHU216DAVISVP2,2013-01-06 03:05:00,
2013-01-05 19:10:00,40.0,1.0,30.24,NNW,328,3.0,5.0,19,0.00,,,0.00,WUHU216DAVISVP2,2013-01-06 03:10:00,
2013-01-05 19:15:00,39.4,1.6,30.23,NNW,328,2.0,5.0,20,0.00,,,0.00,WUHU216DAVISVP2,2013-01-06 03:15:00,
2013-01-05 19:20:00,38.7,1.0,30.23,NNW,328,4.0,5.0,20,0.00,,,0.00,WUHU216DAVISVP2,2013-01-06 03:20:00,
2013-01-05 19:26:00,38.6,0.9,30.23,NNW,328,4.0,5.0,20,0.00,,,0.00,WUHU216DAVISVP2,2013-01-06 03:26:00,
2013-01-05 19:31:00,38.7,1.0,30.23,NNW,328,0.0,5.0,20,0.00,,,0.00,WUHU216DAVISVP2,2013-01-06 03:31:00,
2013-01-05 19:36:00,38.6,0.9,30.24,NNW,328,4.0,5.0,20,0.00,,,0.00,WUHU216DAVISVP2,2013-01-06 03:36:00,
2013-01-05 19:41:00,38.7,1.0,30.24,NNW,328,4.0,5.0,20,0.00,,,0.00,WUHU216DAVISVP2,2013-01-06 03:41:00,
2013-01-05 19:46:00,38.8,2.1,30.23,NNW,328,4.0,5.0,21,0.00,,,0.00,WUHU216DAVISVP2,2013-01-06 03:46:00,
2013-01-05 19:51:00,39.0,1.2,30.23,NNW,328,3.0,5.0,20,0.00,,,0.00,WUHU216DAVISVP2,2013-01-06 03:51:00,
2013-01-05 19:56:00,38.6,0.9,30.23,NNW,328,0.0,5.0,20,0.00,,,0.00,WUHU216DAVISVP2,2013-01-06 03:56:00,
2013-01-05 20:01:00,38.0,1.4,30.23,NNW,328,4.0,5.0,21,0.00,,,0.00,WUHU216DAVISVP2,2013-01-06 04:01:00,
2013-01-05 20:06:00,38.2,1.6,30.23,NNW,328,4.0,5.0,21,0.00,,,0.00,WUHU216DAVISVP2,2013-01-06 04:06:00,
2013-01-05 20:11:00,38.6,0.9,30.23,NNW,328,3.0,5.0,20,0.00,,,0.00,WUHU216DAVISVP2,2013-01-06 04:11:00,
2013-01-05 20:17:00,38.9,1.2,30.23,NNW,328,3.0,5.0,20,0.00,,,0.00,WUHU216DAVISVP2,2013-01-06 04:17:00,
2013-01-05 20:22:00,38.9,1.2,30.23,NNW,328,0.0,5.0,20,0.00,,,0.00,WUHU216DAVISVP2,2013-01-06 04:22:00,
2013-01-05 20:27:00,38.6,0.9,30.23,NNW,328,0.0,5.0,20,0.00,,,0.00,WUHU216DAVISVP2,2013-01-06 04:27:00,
2013-01-05 20:32:00,38.7,1.0,30.23,NNW,328,2.0,5.0,20,0.00,,,0.00,WUHU216DAVISVP2,2013-01-06 04:32:00,
2013-01-05 20:37:00,38.8,1.1,30.23,NNW,328,3.0,3.0,20,0.00,,,0.00,WUHU216DAVISVP2,2013-01-06 04:37:00,
2013-01-05 20:42:00,38.7,1.0,30.23,NNW,328,3.0,4.0,20,0.00,,,0.00,WUHU216DAVISVP2,2013-01-06 04:42:00,
2013-01-05 20:47:00,38.0,0.4,30.23,NNW,328,2.0,4.0,20,0.00,,,0.00,WUHU216DAVISVP2,2013-01-06 04:47:00,
2013-01-05 20:52:00,37.4,0.9,30.23,NNW,328,3.0,5.0,21,0.00,,,0.00,WUHU216DAVISVP2,2013-01-06 04:52:00,
2013-01-05 20:57:00,37.4,0.9,30.24,NNW,328,6.0,6.0,21,0.00,,,0.00,WUHU216DAVISVP2,2013-01-06 04:57:00,
2013-01-05 21:03:00,37.1,0.7,30.24,NNW,328,3.0,6.0,21,0.00,,,0.00,WUHU216DAVISVP2,2013-01-06 05:03:00,
2013-01-05 21:08:00,36.1,-0.2,30.24,NNW,328,3.0,6.0,21,0.00,,,0.00,WUHU216DAVISVP2,2013-01-06 05:08:00,
2013-01-05 21:13:00,35.9,1.6,30.23,NNW,328,3.0,6.0,23,0.00,,,0.00,WUHU216DAVISVP2,2013-01-06 05:13:00,
2013-01-05 21:18:00,36.1,1.7,30.23,NNW,328,3.0,5.0,23,0.00,,,0.00,WUHU216DAVISVP2,2013-01-06 05:18:00,
2013-01-05 21:23:00,36.0,-0.3,30.23,NNW,328,4.0,5.0,21,0.00,,,0.00,WUHU216DAVISVP2,2013-01-06 05:23:00,
2013-01-05 21:28:00,35.3,0.1,30.23,NNW,328,5.0,6.0,22,0.00,,,0.00,WUHU216DAVISVP2,2013-01-06 05:28:00,
2013-01-05 21:34:00,35.1,0.0,30.23,NW,325,4.0,6.0,22,0.00,,,0.00,WUHU216DAVISVP2,2013-01-06 05:34:00,
2013-01-05 21:39:00,35.1,0.0,30.23,NW,322,1.0,6.0,22,0.00,,,0.00,WUHU216DAVISVP2,2013-01-06 05:39:00,
2013-01-05 21:44:00,35.1,0.0,30.23,NW,322,1.0,6.0,22,0.00,,,0.00,WUHU216DAVISVP2,2013-01-06 05:44:00,
2013-01-05 21:49:00,34.6,0.5,30.23,NW,322,2.0,5.0,23,0.00,,,0.00,WUHU216DAVISVP2,2013-01-06 05:49:00,
2013-01-05 21:54:00,35.1,0.9,30.23,NW,322,2.0,4.0,23,0.00,,,0.00,WUHU216DAVISVP2,2013-01-06 05:54:00,
2013-01-05 21:59:00,35.6,1.3,30.23,NW,322,5.0,5.0,23,0.00,,,0.00,WUHU216DAVISVP2,2013-01-06 05:59:00,
2013-01-05 22:04:00,35.8,1.5,30.23,NW,322,4.0,6.0,23,0.00,,,0.00,WUHU216DAVISVP2,2013-01-06 06:04:00,
2013-01-05 22:09:00,35.9,0.7,30.23,NW,322,2.0,6.0,22,0.00,,,0.00,WUHU216DAVISVP2,2013-01-06 06:09:00,
2013-01-05 22:15:00,35.7,1.5,30.23,NW,322,3.0,6.0,23,0.00,,,0.00,WUHU216DAVISVP2,2013-01-06 06:15:00,
2013-01-05 22:20:00,35.7,1.5,30.23,NW,322,0.0,6.0,23,0.00,,,0.00,WUHU216DAVISVP2,2013-01-06 06:20:00,
2013-01-05 22:25:00,35.2,0.0,30.23,NW,322,1.0,4.0,22,0.00,,,0.00,WUHU216DAVISVP2,2013-01-06 06:25:00,
2013-01-05 22:30:00,34.4,0.3,30.23,NW,322,1.0,4.0,23,0.00,,,0.00,WUHU216DAVISVP2,2013-01-06 06:30:00,
2013-01-05 22:35:00,34.3,1.1,30.23,NW,322,2.0,3.0,24,0.00,,,0.00,WUHU216DAVISVP2,2013-01-06 06:35:00,
2013-01-05 22:40:00,35.0,0.8,30.22,NW,322,2.0,3.0,23,0.00,,,0.00,WUHU216DAVISVP2,2013-01-06 06:40:00,
2013-01-05 22:45:00,35.9,0.6,30.22,NW,322,0.0,3.0,22,0.00,,,0.00,WUHU216DAVISVP2,2013-01-06 06:45:00,
2013-01-05 22:50:00,36.1,0.8,30.22,NW,322,0.0,3.0,22,0.00,,,0.00,WUHU216DAVISVP2,2013-01-06 06:50:00,
2013-01-05 22:55:00,35.7,0.5,30.22,NW,322,0.0,2.0,22,0.00,,,0.00,WUHU216DAVISVP2,2013-01-06 06:55:00,
2013-01-05 23:00:00,36.1,2.6,30.22,NW,322,3.0,3.0,24,0.00,,,0.00,WUHU216DAVISVP2,2013-01-06 07:00:00,
2013-01-05 23:05:00,36.8,1.4,30.21,NW,322,4.0,5.0,22,0.00,,,0.00,WUHU216DAVISVP2,2013-01-06 07:05:00,
2013-01-05 23:11:00,36.4,1.1,30.21,NW,322,3.0,5.0,22,0.00,,,0.00,WUHU216DAVISVP2,2013-01-06 07:11:00,
2013-01-05 23:16:00,36.3,1.0,30.20,NW,322,0.0,5.0,22,0.00,,,0.00,WUHU216DAVISVP2,2013-01-06 07:16:00,
2013-01-05 23:21:00,36.5,1.1,30.20,NW,322,1.0,5.0,22,0.00,,,0.00,WUHU216DAVISVP2,2013-01-06 07:21:00,
2013-01-05 23:26:00,36.0,0.7,30.20,NW,322,3.0,5.0,22,0.00,,,0.00,WUHU216DAVISVP2,2013-01-06 07:26:00,
2013-01-05 23:31:00,36.0,1.7,30.20,NW,322,1.0,3.0,23,0.00,,,0.00,WUHU216DAVISVP2,2013-01-06 07:31:00,
2013-01-05 23:36:00,36.6,1.2,30.20,NW,322,2.0,3.0,22,0.00,,,0.00,WUHU216DAVISVP2,2013-01-06 07:36:00,
2013-01-05 23:41:00,36.6,2.2,30.20,NW,322,3.0,4.0,23,0.00,,,0.00,WUHU216DAVISVP2,2013-01-06 07:41:00,
2013-01-05 23:47:00,36.7,2.2,30.20,NW,322,3.0,6.0,23,0.00,,,0.00,WUHU216DAVISVP2,2013-01-06 07:47:00,
2013-01-05 23:52:00,36.9,1.5,30.20,NW,321,3.0,6.0,22,0.00,,,0.00,WUHU216DAVISVP2,2013-01-06 07:52:00,
2013-01-05 23:57:00,36.5,2.1,30.19,NW,321,2.0,6.0,23,0.00,,,0.00,WUHU216DAVISVP2,2013-01-06 07:57:00,